Main page
METAR-TAF:

METAR-TAF

Airports :

Indira Gandhi International Airport

New Delhi, India

latitude: 28-34N, longitude: 077-07E, elevation: 220 m

Current weather observation

The report was made 39 minutes ago, at 15:30 UTC
Wind 7 kt from the Northeast
Temperature 36°C
Humidity 39%
Pressure 998 hPa
Visibility: 3100 m
Few clouds at a height of 4000 ft
Scattered clouds at a height of 10000 ft
haze

METAR: VIDP 231530Z 05007KT 3100 HZ FEW040 SCT100 36/20 Q0998 NOSIG

Time: 21:39 (16:09 UTC)

Forecast

The report was made 2 hours and 9 minutes ago, at 14:00 UTC
Forecast valid from 23 at 15 UTC to 23 at 24 UTC
Wind 6 kt from the North
Visibility: 3000 m
Few clouds at a height of 4000 ft
Scattered clouds at a height of 10000 ft
haze
Temporary
from 23 at 17 UTC to 23 at 21 UTC
Few clouds at a height of 4000 ft, Cumulonimbus.

TAF: VIDP 231400Z 2315/2324 35006KT 3000 HZ FEW040 SCT100 TEMPO 2317/2321 FEW040CB

Weather observations and forecasts of more than 4000 airports (METAR and TAF reports).

The available stations are represented by yellow and red dots on the map.

Hover mouse over dot to see the name of the station.

Then click to see weather observations and forecasts.

To change the map : click on the green buttons with a black cross to zoom in, on the green button with a dash to zoom out, or on the green arrows for adjacent maps.


METAR-TAF: